sensor_id;sensor_type;location;lat;lon;timestamp;temperature;humidity
50570;DHT22;36525;49.398;7.614;2023-07-31T00:02:09;16.80;99.90
50570;DHT22;36525;49.398;7.614;2023-07-31T00:04:36;16.80;99.90
50570;DHT22;36525;49.398;7.614;2023-07-31T00:07:04;16.80;99.90
50570;DHT22;36525;49.398;7.614;2023-07-31T00:09:33;16.80;99.90
50570;DHT22;36525;49.398;7.614;2023-07-31T00:12:03;16.80;99.90
50570;DHT22;36525;49.398;7.614;2023-07-31T00:14:30;16.80;99.90
50570;DHT22;36525;49.398;7.614;2023-07-31T00:16:57;16.70;99.90
50570;DHT22;36525;49.398;7.614;2023-07-31T00:19:24;16.70;99.90
50570;DHT22;36525;49.398;7.614;2023-07-31T00:21:52;16.80;99.90
50570;DHT22;36525;49.398;7.614;2023-07-31T00:24:19;16.80;99.90
50570;DHT22;36525;49.398;7.614;2023-07-31T00:26:46;16.70;99.90
50570;DHT22;36525;49.398;7.614;2023-07-31T00:29:13;16.70;99.90
50570;DHT22;36525;49.398;7.614;2023-07-31T00:31:40;16.70;99.90
50570;DHT22;36525;49.398;7.614;2023-07-31T00:34:07;16.70;99.90
50570;DHT22;36525;49.398;7.614;2023-07-31T00:36:34;16.70;99.90
50570;DHT22;36525;49.398;7.614;2023-07-31T00:39:01;16.60;99.90
50570;DHT22;36525;49.398;7.614;2023-07-31T00:41:28;16.60;99.90
50570;DHT22;36525;49.398;7.614;2023-07-31T00:43:55;16.60;99.90
50570;DHT22;36525;49.398;7.614;2023-07-31T00:46:22;16.60;99.90
50570;DHT22;36525;49.398;7.614;2023-07-31T00:48:49;16.50;99.90
50570;DHT22;36525;49.398;7.614;2023-07-31T00:51:16;16.40;99.90
50570;DHT22;36525;49.398;7.614;2023-07-31T00:53:44;16.30;99.90
50570;DHT22;36525;49.398;7.614;2023-07-31T00:56:12;16.20;99.90
50570;DHT22;36525;49.398;7.614;2023-07-31T00:58:39;16.20;99.90
50570;DHT22;36525;49.398;7.614;2023-07-31T01:01:07;16.20;99.90
50570;DHT22;36525;49.398;7.614;2023-07-31T01:03:34;16.20;99.90
50570;DHT22;36525;49.398;7.614;2023-07-31T01:06:14;16.10;99.90
50570;DHT22;36525;49.398;7.614;2023-07-31T01:11:55;16.00;99.90
50570;DHT22;36525;49.398;7.614;2023-07-31T01:14:23;16.00;99.90
50570;DHT22;36525;49.398;7.614;2023-07-31T01:16:50;15.90;99.90
50570;DHT22;36525;49.398;7.614;2023-07-31T01:19:21;15.80;99.90
50570;DHT22;36525;49.398;7.614;2023-07-31T01:28:04;15.80;99.90
50570;DHT22;36525;49.398;7.614;2023-07-31T01:30:36;15.70;99.90
50570;DHT22;36525;49.398;7.614;2023-07-31T01:33:05;15.70;99.90
50570;DHT22;36525;49.398;7.614;2023-07-31T01:35:35;15.70;99.90
50570;DHT22;36525;49.398;7.614;2023-07-31T01:38:04;15.60;99.90
50570;DHT22;36525;49.398;7.614;2023-07-31T01:40:32;15.70;99.90
50570;DHT22;36525;49.398;7.614;2023-07-31T01:42:59;15.60;99.90
50570;DHT22;36525;49.398;7.614;2023-07-31T01:45:26;15.60;99.90
50570;DHT22;36525;49.398;7.614;2023-07-31T01:47:53;15.70;99.90
50570;DHT22;36525;49.398;7.614;2023-07-31T01:50:20;15.70;99.90
50570;DHT22;36525;49.398;7.614;2023-07-31T01:52:48;15.70;99.90
50570;DHT22;36525;49.398;7.614;2023-07-31T01:55:15;15.70;99.90
50570;DHT22;36525;49.398;7.614;2023-07-31T01:57:42;15.70;99.90
50570;DHT22;36525;49.398;7.614;2023-07-31T02:00:10;15.70;99.90
50570;DHT22;36525;49.398;7.614;2023-07-31T02:02:37;15.70;99.90
50570;DHT22;36525;49.398;7.614;2023-07-31T02:05:05;15.70;99.90
50570;DHT22;36525;49.398;7.614;2023-07-31T02:07:32;15.60;99.90
50570;DHT22;36525;49.398;7.614;2023-07-31T02:09:59;15.60;99.90
50570;DHT22;36525;49.398;7.614;2023-07-31T02:12:27;15.60;99.90
50570;DHT22;36525;49.398;7.614;2023-07-31T02:14:57;15.60;99.90
50570;DHT22;36525;49.398;7.614;2023-07-31T02:17:24;15.60;99.90
50570;DHT22;36525;49.398;7.614;2023-07-31T02:19:51;15.50;99.90
50570;DHT22;36525;49.398;7.614;2023-07-31T02:22:18;15.50;99.90
50570;DHT22;36525;49.398;7.614;2023-07-31T02:24:45;15.40;99.90
50570;DHT22;36525;49.398;7.614;2023-07-31T02:27:13;15.40;99.90
50570;DHT22;36525;49.398;7.614;2023-07-31T02:29:40;15.30;99.90
50570;DHT22;36525;49.398;7.614;2023-07-31T02:32:07;15.20;99.90
50570;DHT22;36525;49.398;7.614;2023-07-31T02:34:34;15.20;99.90
50570;DHT22;36525;49.398;7.614;2023-07-31T02:37:01;15.20;99.90
50570;DHT22;36525;49.398;7.614;2023-07-31T02:39:28;15.10;99.90
50570;DHT22;36525;49.398;7.614;2023-07-31T02:41:55;15.20;99.90
50570;DHT22;36525;49.398;7.614;2023-07-31T02:44:22;15.10;99.90
50570;DHT22;36525;49.398;7.614;2023-07-31T02:46:49;15.10;99.90
50570;DHT22;36525;49.398;7.614;2023-07-31T02:49:16;15.10;99.90
50570;DHT22;36525;49.398;7.614;2023-07-31T02:51:43;15.00;99.90
50570;DHT22;36525;49.398;7.614;2023-07-31T02:54:10;15.10;99.90
50570;DHT22;36525;49.398;7.614;2023-07-31T02:56:37;15.10;99.90
50570;DHT22;36525;49.398;7.614;2023-07-31T02:59:05;15.10;99.90
50570;DHT22;36525;49.398;7.614;2023-07-31T03:01:32;15.10;99.90
50570;DHT22;36525;49.398;7.614;2023-07-31T03:03:59;15.10;99.90
50570;DHT22;36525;49.398;7.614;2023-07-31T03:06:26;15.10;99.90
50570;DHT22;36525;49.398;7.614;2023-07-31T03:08:54;15.20;99.90
50570;DHT22;36525;49.398;7.614;2023-07-31T03:11:21;15.10;99.90
50570;DHT22;36525;49.398;7.614;2023-07-31T03:13:48;15.20;99.90
50570;DHT22;36525;49.398;7.614;2023-07-31T03:16:15;15.20;99.90
50570;DHT22;36525;49.398;7.614;2023-07-31T03:18:42;15.10;99.90
50570;DHT22;36525;49.398;7.614;2023-07-31T03:21:09;15.20;99.90
50570;DHT22;36525;49.398;7.614;2023-07-31T03:23:36;15.10;99.90
50570;DHT22;36525;49.398;7.614;2023-07-31T03:26:07;15.10;99.90
50570;DHT22;36525;49.398;7.614;2023-07-31T03:28:34;15.10;99.90
50570;DHT22;36525;49.398;7.614;2023-07-31T03:31:02;15.10;99.90
50570;DHT22;36525;49.398;7.614;2023-07-31T03:33:29;15.10;99.90
50570;DHT22;36525;49.398;7.614;2023-07-31T03:35:56;15.10;99.90
50570;DHT22;36525;49.398;7.614;2023-07-31T03:38:23;15.10;99.90
50570;DHT22;36525;49.398;7.614;2023-07-31T03:40:51;15.10;99.90
50570;DHT22;36525;49.398;7.614;2023-07-31T03:43:20;15.10;99.90
50570;DHT22;36525;49.398;7.614;2023-07-31T03:45:47;15.00;99.90
50570;DHT22;36525;49.398;7.614;2023-07-31T03:48:15;15.00;99.90
50570;DHT22;36525;49.398;7.614;2023-07-31T03:50:43;15.00;99.90
50570;DHT22;36525;49.398;7.614;2023-07-31T03:53:10;15.00;99.90
50570;DHT22;36525;49.398;7.614;2023-07-31T03:55:37;15.00;99.90
50570;DHT22;36525;49.398;7.614;2023-07-31T03:58:04;15.00;99.90
50570;DHT22;36525;49.398;7.614;2023-07-31T04:00:31;15.00;99.90
50570;DHT22;36525;49.398;7.614;2023-07-31T04:02:58;15.00;99.90
50570;DHT22;36525;49.398;7.614;2023-07-31T04:05:25;15.00;99.90
50570;DHT22;36525;49.398;7.614;2023-07-31T04:07:52;15.00;99.90
50570;DHT22;36525;49.398;7.614;2023-07-31T04:10:19;14.90;99.90
50570;DHT22;36525;49.398;7.614;2023-07-31T04:12:46;14.90;99.90
50570;DHT22;36525;49.398;7.614;2023-07-31T04:15:13;15.00;99.90
50570;DHT22;36525;49.398;7.614;2023-07-31T04:17:40;14.90;99.90
50570;DHT22;36525;49.398;7.614;2023-07-31T04:20:08;14.90;99.90
50570;DHT22;36525;49.398;7.614;2023-07-31T04:22:36;14.90;99.90
50570;DHT22;36525;49.398;7.614;2023-07-31T04:25:03;14.80;99.90
50570;DHT22;36525;49.398;7.614;2023-07-31T04:27:30;14.80;99.90
50570;DHT22;36525;49.398;7.614;2023-07-31T04:29:57;14.70;99.90
50570;DHT22;36525;49.398;7.614;2023-07-31T04:32:25;14.80;99.90
50570;DHT22;36525;49.398;7.614;2023-07-31T04:34:52;14.80;99.90
50570;DHT22;36525;49.398;7.614;2023-07-31T04:37:19;14.80;99.90
50570;DHT22;36525;49.398;7.614;2023-07-31T04:39:46;14.80;99.90
50570;DHT22;36525;49.398;7.614;2023-07-31T04:42:13;14.80;99.90
50570;DHT22;36525;49.398;7.614;2023-07-31T04:44:40;14.80;99.90
50570;DHT22;36525;49.398;7.614;2023-07-31T04:47:07;14.80;99.90
50570;DHT22;36525;49.398;7.614;2023-07-31T04:49:34;14.80;99.90
50570;DHT22;36525;49.398;7.614;2023-07-31T04:52:01;14.70;99.90
50570;DHT22;36525;49.398;7.614;2023-07-31T04:54:29;14.70;99.90
50570;DHT22;36525;49.398;7.614;2023-07-31T04:56:56;14.70;99.90
50570;DHT22;36525;49.398;7.614;2023-07-31T04:59:23;14.70;99.90
50570;DHT22;36525;49.398;7.614;2023-07-31T05:01:50;14.80;99.90
50570;DHT22;36525;49.398;7.614;2023-07-31T05:04:17;14.70;99.90
50570;DHT22;36525;49.398;7.614;2023-07-31T05:06:44;14.70;99.90
50570;DHT22;36525;49.398;7.614;2023-07-31T05:09:11;14.80;99.90
50570;DHT22;36525;49.398;7.614;2023-07-31T05:11:38;14.80;99.90
50570;DHT22;36525;49.398;7.614;2023-07-31T05:14:07;14.80;99.90
50570;DHT22;36525;49.398;7.614;2023-07-31T05:16:34;14.90;99.90
50570;DHT22;36525;49.398;7.614;2023-07-31T05:19:01;14.90;99.90
50570;DHT22;36525;49.398;7.614;2023-07-31T05:21:28;15.00;99.90
50570;DHT22;36525;49.398;7.614;2023-07-31T05:23:55;15.10;99.90
50570;DHT22;36525;49.398;7.614;2023-07-31T05:26:23;15.20;99.90
50570;DHT22;36525;49.398;7.614;2023-07-31T05:28:50;15.20;99.90
50570;DHT22;36525;49.398;7.614;2023-07-31T05:31:17;15.30;99.90
50570;DHT22;36525;49.398;7.614;2023-07-31T05:33:44;15.30;99.90
50570;DHT22;36525;49.398;7.614;2023-07-31T05:36:11;15.40;99.90
50570;DHT22;36525;49.398;7.614;2023-07-31T05:38:38;15.50;99.90
50570;DHT22;36525;49.398;7.614;2023-07-31T05:41:09;15.60;99.90
50570;DHT22;36525;49.398;7.614;2023-07-31T05:43:36;15.70;99.90
50570;DHT22;36525;49.398;7.614;2023-07-31T05:46:03;15.70;99.90
50570;DHT22;36525;49.398;7.614;2023-07-31T05:48:32;15.80;99.90
50570;DHT22;36525;49.398;7.614;2023-07-31T05:51:01;15.90;99.90
50570;DHT22;36525;49.398;7.614;2023-07-31T05:53:28;15.90;99.90
50570;DHT22;36525;49.398;7.614;2023-07-31T05:55:55;15.90;99.90
50570;DHT22;36525;49.398;7.614;2023-07-31T05:58:22;15.90;99.90
50570;DHT22;36525;49.398;7.614;2023-07-31T06:00:49;15.90;99.90
50570;DHT22;36525;49.398;7.614;2023-07-31T06:03:19;15.90;99.90
50570;DHT22;36525;49.398;7.614;2023-07-31T06:05:46;16.00;99.90
50570;DHT22;36525;49.398;7.614;2023-07-31T06:08:13;16.00;99.90
50570;DHT22;36525;49.398;7.614;2023-07-31T06:10:40;16.00;99.90
50570;DHT22;36525;49.398;7.614;2023-07-31T06:13:07;15.80;99.90
50570;DHT22;36525;49.398;7.614;2023-07-31T06:15:34;15.90;99.90
50570;DHT22;36525;49.398;7.614;2023-07-31T06:18:04;15.80;99.90
50570;DHT22;36525;49.398;7.614;2023-07-31T06:20:34;15.80;99.90
50570;DHT22;36525;49.398;7.614;2023-07-31T06:23:01;15.80;99.90
50570;DHT22;36525;49.398;7.614;2023-07-31T06:25:30;15.90;99.90
50570;DHT22;36525;49.398;7.614;2023-07-31T06:27:57;15.80;99.90
50570;DHT22;36525;49.398;7.614;2023-07-31T06:30:24;15.70;99.90
50570;DHT22;36525;49.398;7.614;2023-07-31T06:32:51;15.70;99.90
50570;DHT22;36525;49.398;7.614;2023-07-31T06:35:18;15.80;99.90
50570;DHT22;36525;49.398;7.614;2023-07-31T06:37:45;15.90;99.90
50570;DHT22;36525;49.398;7.614;2023-07-31T06:40:12;16.10;99.90
50570;DHT22;36525;49.398;7.614;2023-07-31T06:42:40;16.30;99.90
50570;DHT22;36525;49.398;7.614;2023-07-31T06:45:07;16.40;99.90
50570;DHT22;36525;49.398;7.614;2023-07-31T06:47:35;16.60;99.90
50570;DHT22;36525;49.398;7.614;2023-07-31T06:50:02;16.70;99.90
50570;DHT22;36525;49.398;7.614;2023-07-31T06:52:29;16.90;99.90
50570;DHT22;36525;49.398;7.614;2023-07-31T06:55:09;16.90;99.90
50570;DHT22;36525;49.398;7.614;2023-07-31T06:57:49;17.10;99.90
50570;DHT22;36525;49.398;7.614;2023-07-31T07:00:18;17.30;99.90
50570;DHT22;36525;49.398;7.614;2023-07-31T07:02:46;17.30;99.90
50570;DHT22;36525;49.398;7.614;2023-07-31T07:05:17;17.60;99.90
50570;DHT22;36525;49.398;7.614;2023-07-31T07:07:44;17.90;99.90
50570;DHT22;36525;49.398;7.614;2023-07-31T07:10:12;17.80;99.90
50570;DHT22;36525;49.398;7.614;2023-07-31T07:12:39;17.70;99.90
50570;DHT22;36525;49.398;7.614;2023-07-31T07:15:09;17.80;99.90
50570;DHT22;36525;49.398;7.614;2023-07-31T07:17:36;17.80;99.90
50570;DHT22;36525;49.398;7.614;2023-07-31T07:20:04;17.90;99.90
50570;DHT22;36525;49.398;7.614;2023-07-31T07:22:32;18.00;99.90
50570;DHT22;36525;49.398;7.614;2023-07-31T07:25:03;18.10;99.90
50570;DHT22;36525;49.398;7.614;2023-07-31T07:27:30;18.20;99.90
50570;DHT22;36525;49.398;7.614;2023-07-31T07:29:58;18.00;99.90
50570;DHT22;36525;49.398;7.614;2023-07-31T07:32:25;17.90;99.90
50570;DHT22;36525;49.398;7.614;2023-07-31T07:34:52;18.00;99.90
50570;DHT22;36525;49.398;7.614;2023-07-31T07:37:19;17.90;99.90
50570;DHT22;36525;49.398;7.614;2023-07-31T07:39:46;17.70;99.90
50570;DHT22;36525;49.398;7.614;2023-07-31T07:42:14;17.90;99.90
50570;DHT22;36525;49.398;7.614;2023-07-31T07:44:41;17.80;99.90
50570;DHT22;36525;49.398;7.614;2023-07-31T07:47:08;17.90;99.90
50570;DHT22;36525;49.398;7.614;2023-07-31T07:49:35;17.80;99.90
50570;DHT22;36525;49.398;7.614;2023-07-31T07:52:03;18.10;99.90
50570;DHT22;36525;49.398;7.614;2023-07-31T07:54:31;18.40;99.90
50570;DHT22;36525;49.398;7.614;2023-07-31T07:56:58;18.30;99.90
50570;DHT22;36525;49.398;7.614;2023-07-31T07:59:26;18.30;99.90
50570;DHT22;36525;49.398;7.614;2023-07-31T08:01:53;18.40;99.90
50570;DHT22;36525;49.398;7.614;2023-07-31T08:04:20;18.30;99.90
50570;DHT22;36525;49.398;7.614;2023-07-31T08:06:47;18.60;99.90
50570;DHT22;36525;49.398;7.614;2023-07-31T08:09:14;18.70;99.90
50570;DHT22;36525;49.398;7.614;2023-07-31T08:11:41;18.60;99.90
50570;DHT22;36525;49.398;7.614;2023-07-31T08:14:08;18.50;99.90
50570;DHT22;36525;49.398;7.614;2023-07-31T08:16:35;18.40;99.90
50570;DHT22;36525;49.398;7.614;2023-07-31T08:19:02;18.40;99.90
50570;DHT22;36525;49.398;7.614;2023-07-31T08:21:29;18.50;99.90
50570;DHT22;36525;49.398;7.614;2023-07-31T08:23:56;18.60;99.90
50570;DHT22;36525;49.398;7.614;2023-07-31T08:26:23;18.90;99.90
50570;DHT22;36525;49.398;7.614;2023-07-31T08:28:51;19.50;99.90
50570;DHT22;36525;49.398;7.614;2023-07-31T08:31:18;19.40;99.90
50570;DHT22;36525;49.398;7.614;2023-07-31T08:33:45;19.20;99.90
50570;DHT22;36525;49.398;7.614;2023-07-31T08:36:12;19.10;99.90
50570;DHT22;36525;49.398;7.614;2023-07-31T08:38:39;19.10;99.90
50570;DHT22;36525;49.398;7.614;2023-07-31T08:41:07;19.10;99.90
50570;DHT22;36525;49.398;7.614;2023-07-31T08:43:36;18.90;99.90
50570;DHT22;36525;49.398;7.614;2023-07-31T08:46:05;19.10;99.90
50570;DHT22;36525;49.398;7.614;2023-07-31T08:48:32;19.30;99.90
50570;DHT22;36525;49.398;7.614;2023-07-31T08:51:00;19.30;99.90
50570;DHT22;36525;49.398;7.614;2023-07-31T08:53:27;19.60;99.90
50570;DHT22;36525;49.398;7.614;2023-07-31T08:55:54;20.00;99.90
50570;DHT22;36525;49.398;7.614;2023-07-31T08:58:24;20.20;99.90
50570;DHT22;36525;49.398;7.614;2023-07-31T09:00:52;20.50;99.90
50570;DHT22;36525;49.398;7.614;2023-07-31T09:03:23;20.30;99.90
50570;DHT22;36525;49.398;7.614;2023-07-31T09:05:53;20.20;99.90
50570;DHT22;36525;49.398;7.614;2023-07-31T09:08:22;20.10;99.90
50570;DHT22;36525;49.398;7.614;2023-07-31T09:10:49;19.90;99.90
50570;DHT22;36525;49.398;7.614;2023-07-31T09:13:17;20.20;99.90
50570;DHT22;36525;49.398;7.614;2023-07-31T09:15:45;20.30;99.90
50570;DHT22;36525;49.398;7.614;2023-07-31T09:18:13;20.90;99.90
50570;DHT22;36525;49.398;7.614;2023-07-31T09:20:44;20.90;99.90
50570;DHT22;36525;49.398;7.614;2023-07-31T09:23:12;21.10;99.90
50570;DHT22;36525;49.398;7.614;2023-07-31T09:25:44;21.00;99.90
50570;DHT22;36525;49.398;7.614;2023-07-31T09:28:12;21.20;99.90
50570;DHT22;36525;49.398;7.614;2023-07-31T09:30:50;21.00;99.90
50570;DHT22;36525;49.398;7.614;2023-07-31T09:33:19;21.10;99.90
50570;DHT22;36525;49.398;7.614;2023-07-31T09:35:47;21.30;99.90
50570;DHT22;36525;49.398;7.614;2023-07-31T09:38:16;21.20;99.90
50570;DHT22;36525;49.398;7.614;2023-07-31T09:40:47;20.70;99.90
50570;DHT22;36525;49.398;7.614;2023-07-31T09:43:20;20.30;99.90
50570;DHT22;36525;49.398;7.614;2023-07-31T09:45:48;19.80;99.90
50570;DHT22;36525;49.398;7.614;2023-07-31T09:48:23;19.80;99.90
50570;DHT22;36525;49.398;7.614;2023-07-31T09:50:54;20.00;99.90
50570;DHT22;36525;49.398;7.614;2023-07-31T09:53:28;20.00;99.90
50570;DHT22;36525;49.398;7.614;2023-07-31T09:55:59;19.80;99.90
50570;DHT22;36525;49.398;7.614;2023-07-31T09:58:28;19.80;99.90
50570;DHT22;36525;49.398;7.614;2023-07-31T10:00:58;19.70;99.90
50570;DHT22;36525;49.398;7.614;2023-07-31T10:03:35;19.80;99.90
50570;DHT22;36525;49.398;7.614;2023-07-31T10:06:03;19.80;99.90
50570;DHT22;36525;49.398;7.614;2023-07-31T10:08:35;19.90;99.90
50570;DHT22;36525;49.398;7.614;2023-07-31T10:11:04;19.70;99.90
50570;DHT22;36525;49.398;7.614;2023-07-31T10:13:32;19.60;99.90
50570;DHT22;36525;49.398;7.614;2023-07-31T10:16:00;19.60;99.90
50570;DHT22;36525;49.398;7.614;2023-07-31T10:18:34;19.50;99.90
50570;DHT22;36525;49.398;7.614;2023-07-31T10:21:02;19.60;99.90
50570;DHT22;36525;49.398;7.614;2023-07-31T10:23:45;19.80;99.90
50570;DHT22;36525;49.398;7.614;2023-07-31T10:26:13;20.00;99.90
50570;DHT22;36525;49.398;7.614;2023-07-31T10:28:41;20.30;99.90
50570;DHT22;36525;49.398;7.614;2023-07-31T10:31:10;20.20;99.90
50570;DHT22;36525;49.398;7.614;2023-07-31T10:33:37;20.50;99.90
50570;DHT22;36525;49.398;7.614;2023-07-31T10:36:17;20.50;99.90
50570;DHT22;36525;49.398;7.614;2023-07-31T10:38:48;20.40;99.90
50570;DHT22;36525;49.398;7.614;2023-07-31T10:41:16;20.40;99.90
50570;DHT22;36525;49.398;7.614;2023-07-31T10:43:46;21.20;99.90
50570;DHT22;36525;49.398;7.614;2023-07-31T10:46:14;21.60;99.90
50570;DHT22;36525;49.398;7.614;2023-07-31T10:48:41;21.60;99.90
50570;DHT22;36525;49.398;7.614;2023-07-31T10:51:12;22.20;99.90
50570;DHT22;36525;49.398;7.614;2023-07-31T10:53:40;22.20;99.90
50570;DHT22;36525;49.398;7.614;2023-07-31T10:56:08;22.00;99.90
50570;DHT22;36525;49.398;7.614;2023-07-31T10:58:37;21.50;99.90
50570;DHT22;36525;49.398;7.614;2023-07-31T11:01:07;21.40;99.90
50570;DHT22;36525;49.398;7.614;2023-07-31T11:03:46;21.40;99.90
50570;DHT22;36525;49.398;7.614;2023-07-31T11:06:16;21.20;99.90
50570;DHT22;36525;49.398;7.614;2023-07-31T11:08:49;21.30;99.90
50570;DHT22;36525;49.398;7.614;2023-07-31T11:11:19;21.70;99.90
50570;DHT22;36525;49.398;7.614;2023-07-31T11:13:49;22.00;99.90
50570;DHT22;36525;49.398;7.614;2023-07-31T11:16:18;21.90;99.90
50570;DHT22;36525;49.398;7.614;2023-07-31T11:18:48;21.90;99.90
50570;DHT22;36525;49.398;7.614;2023-07-31T11:21:26;21.90;99.90
50570;DHT22;36525;49.398;7.614;2023-07-31T11:24:25;21.80;99.90
50570;DHT22;36525;49.398;7.614;2023-07-31T11:26:52;21.80;99.90
50570;DHT22;36525;49.398;7.614;2023-07-31T11:29:20;21.60;99.90
50570;DHT22;36525;49.398;7.614;2023-07-31T11:31:48;21.60;99.90
50570;DHT22;36525;49.398;7.614;2023-07-31T11:34:16;21.70;99.90
50570;DHT22;36525;49.398;7.614;2023-07-31T11:36:53;21.90;99.90
50570;DHT22;36525;49.398;7.614;2023-07-31T11:39:21;21.90;99.90
50570;DHT22;36525;49.398;7.614;2023-07-31T11:41:48;21.70;99.90
50570;DHT22;36525;49.398;7.614;2023-07-31T11:44:15;21.70;99.90
50570;DHT22;36525;49.398;7.614;2023-07-31T11:46:56;21.60;99.90
50570;DHT22;36525;49.398;7.614;2023-07-31T11:49:23;21.60;99.90
50570;DHT22;36525;49.398;7.614;2023-07-31T11:51:51;21.50;99.90
50570;DHT22;36525;49.398;7.614;2023-07-31T11:54:18;21.50;99.90
50570;DHT22;36525;49.398;7.614;2023-07-31T11:56:45;21.20;99.90
50570;DHT22;36525;49.398;7.614;2023-07-31T11:59:12;21.30;99.90
50570;DHT22;36525;49.398;7.614;2023-07-31T12:01:39;21.30;99.90
50570;DHT22;36525;49.398;7.614;2023-07-31T12:04:07;21.40;99.90
50570;DHT22;36525;49.398;7.614;2023-07-31T12:06:35;21.40;99.90
50570;DHT22;36525;49.398;7.614;2023-07-31T12:09:04;21.20;99.90
50570;DHT22;36525;49.398;7.614;2023-07-31T12:11:45;21.20;99.90
50570;DHT22;36525;49.398;7.614;2023-07-31T12:14:28;21.50;99.90
50570;DHT22;36525;49.398;7.614;2023-07-31T12:17:04;21.50;99.90
50570;DHT22;36525;49.398;7.614;2023-07-31T12:19:31;21.60;99.90
50570;DHT22;36525;49.398;7.614;2023-07-31T12:21:59;22.00;99.90
50570;DHT22;36525;49.398;7.614;2023-07-31T12:24:28;22.10;99.90
50570;DHT22;36525;49.398;7.614;2023-07-31T12:26:56;21.90;99.90
50570;DHT22;36525;49.398;7.614;2023-07-31T12:29:23;22.20;99.90
50570;DHT22;36525;49.398;7.614;2023-07-31T12:31:50;22.40;99.90
50570;DHT22;36525;49.398;7.614;2023-07-31T12:34:18;22.10;99.90
50570;DHT22;36525;49.398;7.614;2023-07-31T12:36:47;22.00;99.90
50570;DHT22;36525;49.398;7.614;2023-07-31T12:39:17;21.90;99.90
50570;DHT22;36525;49.398;7.614;2023-07-31T12:41:44;21.70;99.90
50570;DHT22;36525;49.398;7.614;2023-07-31T12:44:11;21.30;99.90
50570;DHT22;36525;49.398;7.614;2023-07-31T12:46:38;20.90;99.90
50570;DHT22;36525;49.398;7.614;2023-07-31T12:49:06;21.00;99.90
50570;DHT22;36525;49.398;7.614;2023-07-31T12:51:33;21.00;99.90
50570;DHT22;36525;49.398;7.614;2023-07-31T12:54:00;20.90;99.90
50570;DHT22;36525;49.398;7.614;2023-07-31T12:56:27;20.60;99.90
50570;DHT22;36525;49.398;7.614;2023-07-31T12:58:54;20.50;99.90
50570;DHT22;36525;49.398;7.614;2023-07-31T13:01:21;20.50;99.90
50570;DHT22;36525;49.398;7.614;2023-07-31T13:03:49;20.60;99.90
50570;DHT22;36525;49.398;7.614;2023-07-31T13:06:16;20.40;99.90
50570;DHT22;36525;49.398;7.614;2023-07-31T13:08:43;20.40;99.90
50570;DHT22;36525;49.398;7.614;2023-07-31T13:11:10;20.50;99.90
50570;DHT22;36525;49.398;7.614;2023-07-31T13:13:37;20.50;99.90
50570;DHT22;36525;49.398;7.614;2023-07-31T13:16:04;20.50;99.90
50570;DHT22;36525;49.398;7.614;2023-07-31T13:18:31;20.50;99.90
50570;DHT22;36525;49.398;7.614;2023-07-31T13:20:59;20.40;99.90
50570;DHT22;36525;49.398;7.614;2023-07-31T13:23:26;20.40;99.90
50570;DHT22;36525;49.398;7.614;2023-07-31T13:25:53;20.40;99.90
50570;DHT22;36525;49.398;7.614;2023-07-31T13:28:20;20.40;99.90
50570;DHT22;36525;49.398;7.614;2023-07-31T13:30:47;20.40;99.90
50570;DHT22;36525;49.398;7.614;2023-07-31T13:33:14;20.30;99.90
50570;DHT22;36525;49.398;7.614;2023-07-31T13:36:01;20.10;99.90
50570;DHT22;36525;49.398;7.614;2023-07-31T13:38:28;20.20;99.90
50570;DHT22;36525;49.398;7.614;2023-07-31T13:40:55;20.40;99.90
50570;DHT22;36525;49.398;7.614;2023-07-31T13:43:23;20.30;99.90
50570;DHT22;36525;49.398;7.614;2023-07-31T13:45:50;20.50;99.90
50570;DHT22;36525;49.398;7.614;2023-07-31T13:48:17;20.70;99.90
50570;DHT22;36525;49.398;7.614;2023-07-31T13:50:44;20.80;99.90
50570;DHT22;36525;49.398;7.614;2023-07-31T13:53:14;20.50;99.90
50570;DHT22;36525;49.398;7.614;2023-07-31T13:55:41;20.40;99.90
50570;DHT22;36525;49.398;7.614;2023-07-31T13:58:08;20.60;99.90
50570;DHT22;36525;49.398;7.614;2023-07-31T14:00:35;20.50;99.90
50570;DHT22;36525;49.398;7.614;2023-07-31T14:03:02;20.50;99.90
50570;DHT22;36525;49.398;7.614;2023-07-31T14:05:29;20.70;99.90
50570;DHT22;36525;49.398;7.614;2023-07-31T14:07:57;20.80;99.90
50570;DHT22;36525;49.398;7.614;2023-07-31T14:10:24;21.00;99.90
50570;DHT22;36525;49.398;7.614;2023-07-31T14:12:51;21.10;99.90
50570;DHT22;36525;49.398;7.614;2023-07-31T14:15:18;21.00;99.90
50570;DHT22;36525;49.398;7.614;2023-07-31T14:17:48;20.90;99.90
50570;DHT22;36525;49.398;7.614;2023-07-31T14:20:15;21.20;99.90
50570;DHT22;36525;49.398;7.614;2023-07-31T14:22:43;21.20;99.90
50570;DHT22;36525;49.398;7.614;2023-07-31T14:25:10;21.00;99.90
50570;DHT22;36525;49.398;7.614;2023-07-31T14:27:37;21.20;99.90
50570;DHT22;36525;49.398;7.614;2023-07-31T14:30:05;21.50;99.90
50570;DHT22;36525;49.398;7.614;2023-07-31T14:32:33;21.40;99.90
50570;DHT22;36525;49.398;7.614;2023-07-31T14:35:00;21.20;99.90
50570;DHT22;36525;49.398;7.614;2023-07-31T14:37:37;21.10;99.90
50570;DHT22;36525;49.398;7.614;2023-07-31T14:40:05;21.00;99.90
50570;DHT22;36525;49.398;7.614;2023-07-31T14:42:34;20.90;99.90
50570;DHT22;36525;49.398;7.614;2023-07-31T14:45:05;20.80;99.90
50570;DHT22;36525;49.398;7.614;2023-07-31T14:47:33;20.80;99.90
50570;DHT22;36525;49.398;7.614;2023-07-31T14:50:03;20.80;99.90
50570;DHT22;36525;49.398;7.614;2023-07-31T14:52:34;20.70;99.90
50570;DHT22;36525;49.398;7.614;2023-07-31T14:55:01;20.80;99.90
50570;DHT22;36525;49.398;7.614;2023-07-31T14:57:29;20.80;99.90
50570;DHT22;36525;49.398;7.614;2023-07-31T14:59:56;20.60;99.90
50570;DHT22;36525;49.398;7.614;2023-07-31T15:02:23;20.60;99.90
50570;DHT22;36525;49.398;7.614;2023-07-31T15:04:52;20.60;99.90
50570;DHT22;36525;49.398;7.614;2023-07-31T15:07:19;20.60;99.90
50570;DHT22;36525;49.398;7.614;2023-07-31T15:09:46;20.60;99.90
50570;DHT22;36525;49.398;7.614;2023-07-31T15:12:13;20.50;99.90
50570;DHT22;36525;49.398;7.614;2023-07-31T15:14:40;20.50;99.90
50570;DHT22;36525;49.398;7.614;2023-07-31T15:17:07;20.60;99.90
50570;DHT22;36525;49.398;7.614;2023-07-31T15:19:34;20.60;99.90
50570;DHT22;36525;49.398;7.614;2023-07-31T15:22:03;20.70;99.90
50570;DHT22;36525;49.398;7.614;2023-07-31T15:24:31;20.70;99.90
50570;DHT22;36525;49.398;7.614;2023-07-31T15:26:58;20.80;99.90
50570;DHT22;36525;49.398;7.614;2023-07-31T15:29:25;20.90;99.90
50570;DHT22;36525;49.398;7.614;2023-07-31T15:31:52;20.90;99.90
50570;DHT22;36525;49.398;7.614;2023-07-31T15:34:22;20.90;99.90
50570;DHT22;36525;49.398;7.614;2023-07-31T15:36:49;20.80;99.90
50570;DHT22;36525;49.398;7.614;2023-07-31T15:39:16;20.80;99.90
50570;DHT22;36525;49.398;7.614;2023-07-31T15:41:43;20.80;99.90
50570;DHT22;36525;49.398;7.614;2023-07-31T15:44:10;20.90;99.90
50570;DHT22;36525;49.398;7.614;2023-07-31T15:46:37;20.90;99.90